Time;durP1;ratioP1;P1;durP2;ratioP2;P2;SDS_P1;SDS_P2;PMS_P1;PMS_P2;Temp;Humidity;BMP_temperature;BMP_pressure;BME280_temperature;BME280_humidity;BME280_pressure;Samples;Min_cycle;Max_cycle;Signal;HPM_P1;HPM_P2
2023/02/23 00:01:29;;;;;;;26.33;12.35;;;;;;;7.53;100.00;100291.50;5144739;28;20030;-74
2023/02/23 00:03:59;;;;;;;26.67;11.32;;;;;;;7.57;100.00;100287.94;5139575;28;20026;-76
2023/02/23 00:06:32;;;;;;;29.88;12.18;;;;;;;7.55;100.00;100289.72;5147112;28;20519;-74
2023/02/23 00:09:13;;;;;;;31.38;11.90;;;;;;;7.59;100.00;100290.47;5140544;28;20027;-75
2023/02/23 00:11:43;;;;;;;27.23;12.02;;;;;;;7.51;100.00;100289.88;5150380;28;20077;-74
2023/02/23 00:14:14;;;;;;;32.97;12.43;;;;;;;7.57;100.00;100282.75;5129600;28;20029;-74
2023/02/23 00:16:45;;;;;;;28.73;11.88;;;;;;;7.54;100.00;100277.59;5142062;28;20061;-74
2023/02/23 00:19:16;;;;;;;34.17;13.77;;;;;;;7.53;100.00;100291.50;5143676;28;20089;-74
2023/02/23 00:21:46;;;;;;;31.95;12.95;;;;;;;7.53;100.00;100285.47;5131934;28;20022;-76
2023/02/23 00:24:18;;;;;;;31.77;13.32;;;;;;;7.52;100.00;100287.19;5145386;28;20034;-74
2023/02/23 00:26:50;;;;;;;33.55;12.82;;;;;;;7.47;100.00;100283.00;5126658;28;20038;-74
2023/02/23 00:29:23;;;;;;;31.65;12.68;;;;;;;7.50;100.00;100286.41;5146483;28;20401;-75
2023/02/23 00:31:54;;;;;;;25.65;11.48;;;;;;;7.47;100.00;100270.03;5138203;28;20448;-74
2023/02/23 00:34:25;;;;;;;29.85;12.68;;;;;;;7.45;100.00;100271.81;5120712;28;20105;-75
2023/02/23 00:36:55;;;;;;;26.67;12.07;;;;;;;7.43;100.00;100279.69;5123665;28;20026;-75
2023/02/23 00:39:27;;;;;;;29.02;12.07;;;;;;;7.37;100.00;100278.97;5142550;28;20806;-75
2023/02/23 00:42:02;;;;;;;25.67;12.02;;;;;;;7.39;100.00;100277.19;5143503;28;20038;-74
2023/02/23 00:44:33;;;;;;;28.00;12.40;;;;;;;7.35;100.00;100276.41;5127553;28;20534;-74
2023/02/23 00:47:03;;;;;;;29.27;12.57;;;;;;;7.35;100.00;100279.00;5131567;28;20026;-77
2023/02/23 00:49:33;;;;;;;29.52;12.77;;;;;;;7.34;100.00;100277.31;5138581;28;20031;-74
2023/02/23 00:52:04;;;;;;;24.80;11.55;;;;;;;7.36;100.00;100279.88;5131220;28;20018;-75
2023/02/23 00:54:34;;;;;;;29.00;12.90;;;;;;;7.28;100.00;100278.38;5145720;28;20101;-74
2023/02/23 00:57:04;;;;;;;31.65;11.55;;;;;;;7.27;100.00;100285.31;5137774;28;20029;-73
2023/02/23 00:59:35;;;;;;;28.85;12.25;;;;;;;7.27;100.00;100284.47;5139551;28;20026;-74
2023/02/23 01:02:05;;;;;;;29.05;12.18;;;;;;;7.23;100.00;100281.09;5159291;28;20090;-74
2023/02/23 01:04:35;;;;;;;25.23;11.68;;;;;;;7.19;100.00;100286.41;5156092;28;20018;-75
2023/02/23 01:07:06;;;;;;;26.13;11.10;;;;;;;7.22;100.00;100283.72;5145394;28;20070;-75
2023/02/23 01:09:36;;;;;;;28.95;12.07;;;;;;;7.22;100.00;100286.31;5143906;28;20084;-77
2023/02/23 01:12:07;;;;;;;26.88;12.00;;;;;;;7.22;100.00;100289.78;5148731;28;20272;-73
2023/02/23 01:14:37;;;;;;;29.75;12.05;;;;;;;7.13;100.00;100283.97;5149294;28;20121;-74
2023/02/23 01:17:07;;;;;;;26.13;12.18;;;;;;;7.12;100.00;100279.69;5138998;28;20472;-74
2023/02/23 01:19:38;;;;;;;24.52;11.85;;;;;;;7.11;100.00;100280.56;5137950;28;20030;-76
2023/02/23 01:22:08;;;;;;;27.00;11.77;;;;;;;7.08;100.00;100285.88;5145187;28;20066;-75
2023/02/23 01:24:38;;;;;;;28.20;12.45;;;;;;;7.10;100.00;100284.06;5133701;28;20022;-74
2023/02/23 01:27:09;;;;;;;28.40;11.52;;;;;;;7.12;100.00;100279.69;5154033;28;20494;-74
2023/02/23 01:29:39;;;;;;;26.45;11.50;;;;;;;7.04;100.00;100289.41;5155518;28;20050;-74
2023/02/23 01:32:09;;;;;;;22.38;10.63;;;;;;;7.09;100.00;100285.81;5140816;28;20030;-74
2023/02/23 01:34:39;;;;;;;29.27;11.23;;;;;;;7.01;100.00;100284.28;5154938;28;20030;-76
2023/02/23 01:37:10;;;;;;;24.30;11.45;;;;;;;7.06;100.00;100290.22;5138102;28;20591;-73
2023/02/23 01:39:40;;;;;;;23.23;10.95;;;;;;;6.94;100.00;100282.75;5122921;28;20050;-76
2023/02/23 01:42:12;;;;;;;29.60;11.70;;;;;;;7.10;100.00;100289.28;5143318;28;20113;-75
2023/02/23 01:44:43;;;;;;;27.08;11.18;;;;;;;7.03;100.00;100278.19;5146643;28;20444;-74
2023/02/23 01:47:13;;;;;;;24.38;11.25;;;;;;;7.08;100.00;100275.47;5147964;28;20112;-74
2023/02/23 01:49:44;;;;;;;25.63;11.30;;;;;;;7.04;100.00;100284.22;5139129;28;20453;-74
2023/02/23 01:52:16;;;;;;;24.17;10.98;;;;;;;7.08;100.00;100291.06;5149015;28;20022;-74
2023/02/23 01:54:53;;;;;;;25.58;10.27;;;;;;;7.05;100.00;100291.97;5149574;28;20157;-74
2023/02/23 01:57:25;;;;;;;22.48;9.93;;;;;;;6.99;100.00;100283.50;5140006;28;20030;-74
2023/02/23 01:59:56;;;;;;;26.02;11.05;;;;;;;6.94;100.00;100285.34;5137802;28;20030;-74
2023/02/23 02:02:32;;;;;;;29.55;11.43;;;;;;;7.01;100.00;100285.16;5157943;28;20034;-74
2023/02/23 02:05:06;;;;;;;26.00;11.18;;;;;;;7.03;100.00;100287.69;5150874;28;20034;-74
2023/02/23 02:07:40;;;;;;;21.90;10.63;;;;;;;7.05;100.00;100288.50;5147355;28;20026;-75
2023/02/23 02:12:50;;;;;;;26.92;11.30;;;;;;;7.01;100.00;100281.69;5145116;28;20046;-74
2023/02/23 02:15:24;;;;;;;24.55;11.00;;;;;;;7.04;100.00;100279.88;5149077;28;20475;-74
2023/02/23 02:18:02;;;;;;;25.85;11.30;;;;;;;6.96;100.00;100284.41;5149307;28;20539;-74
2023/02/23 02:20:51;;;;;;;25.00;10.60;;;;;;;7.08;100.00;100283.25;5146831;28;20023;-74
2023/02/23 02:24:09;;;;;;;24.05;10.35;;;;;;;6.98;100.00;100280.06;5147145;28;20114;-74
2023/02/23 02:26:55;;;;;;;22.95;9.63;;;;;;;6.97;100.00;100287.88;5130567;28;20038;-74
2023/02/23 02:29:48;;;;;;;20.98;10.27;;;;;;;6.83;100.00;100287.38;5153319;28;20026;-76
2023/02/23 02:32:38;;;;;;;25.17;10.70;;;;;;;6.84;100.00;100276.09;5156321;28;20033;-74
2023/02/23 02:35:18;;;;;;;27.17;10.70;;;;;;;6.77;100.00;100275.38;5147674;28;20130;-75
2023/02/23 02:38:11;;;;;;;23.38;11.07;;;;;;;6.81;100.00;100276.16;5148528;28;20109;-75
2023/02/23 02:40:52;;;;;;;24.95;10.43;;;;;;;6.79;100.00;100283.16;5142537;28;20058;-74
2023/02/23 02:43:34;;;;;;;23.83;10.20;;;;;;;6.81;100.00;100276.16;5130924;28;20035;-75
2023/02/23 02:46:16;;;;;;;23.10;10.48;;;;;;;6.79;100.00;100271.00;5141752;28;20301;-77
2023/02/23 02:49:34;;;;;;;28.52;10.52;;;;;;;6.74;100.00;100270.28;5132478;28;20030;-76
2023/02/23 02:52:33;;;;;;;20.08;9.50;;;;;;;6.77;100.00;100275.38;5107675;29;20524;-77
2023/02/23 02:55:12;;;;;;;24.33;9.77;;;;;;;6.65;100.00;100283.50;5143544;28;20109;-75
2023/02/23 02:57:45;;;;;;;23.42;9.73;;;;;;;6.69;100.00;100286.84;5149167;28;20048;-74
2023/02/23 04:19:48;;;;;;;21.88;10.02;;;;;;;6.05;100.00;100295.28;5151905;28;20040;-74
2023/02/23 04:22:20;;;;;;;21.50;10.52;;;;;;;5.85;100.00;100299.19;5133163;28;20045;-75
2023/02/23 04:24:50;;;;;;;21.50;9.80;;;;;;;5.85;100.00;100299.19;5150290;28;20038;-76
2023/02/23 04:27:21;;;;;;;22.77;9.88;;;;;;;5.92;100.00;100295.59;5156874;28;20053;-76
2023/02/23 04:29:51;;;;;;;25.00;9.98;;;;;;;5.85;100.00;100296.59;5156430;28;20527;-75
2023/02/23 04:32:22;;;;;;;20.73;10.18;;;;;;;6.06;100.00;100290.97;5141902;28;20084;-76
2023/02/23 04:34:52;;;;;;;22.20;9.52;;;;;;;5.86;100.00;100296.56;5153917;28;20088;-74
2023/02/23 04:37:22;;;;;;;21.92;9.43;;;;;;;6.12;100.00;100289.06;5144926;28;20176;-74
2023/02/23 04:39:52;;;;;;;25.23;10.43;;;;;;;5.91;100.00;100288.69;5148951;28;20038;-74
2023/02/23 04:42:23;;;;;;;23.90;10.82;;;;;;;5.88;100.00;100291.34;5147762;28;20121;-74
2023/02/23 04:44:53;;;;;;;23.88;11.13;;;;;;;5.90;100.00;100287.00;5149148;28;20062;-75
2023/02/23 04:47:24;;;;;;;23.00;10.35;;;;;;;5.94;100.00;100299.00;5150905;28;20514;-75
2023/02/23 04:49:54;;;;;;;23.23;10.90;;;;;;;5.94;100.00;100293.81;5150458;28;20030;-76
2023/02/23 04:52:25;;;;;;;23.70;9.88;;;;;;;6.02;100.00;100292.75;5141085;28;20022;-74
2023/02/23 04:54:55;;;;;;;23.27;10.30;;;;;;;5.72;100.00;100292.53;5139449;28;20457;-76
2023/02/23 04:57:26;;;;;;;23.23;10.13;;;;;;;5.67;100.00;100304.72;5145503;28;20014;-74
2023/02/23 04:59:57;;;;;;;18.58;9.93;;;;;;;5.42;100.00;100298.31;5149599;28;20034;-76
2023/02/23 05:02:27;;;;;;;20.95;9.90;;;;;;;5.49;100.00;100302.47;5152471;28;20037;-75
2023/02/23 05:04:57;;;;;;;20.48;8.30;;;;;;;5.63;100.00;100303.06;5139654;28;20283;-75
2023/02/23 05:07:28;;;;;;;20.15;9.95;;;;;;;5.64;100.00;100300.47;5149137;28;20089;-74
2023/02/23 05:09:58;;;;;;;21.58;9.43;;;;;;;5.62;100.00;100303.97;5148237;28;20413;-74
2023/02/23 05:12:29;;;;;;;22.38;9.57;;;;;;;5.51;100.00;100303.31;5152949;28;20030;-75
2023/02/23 05:14:59;;;;;;;19.02;10.00;;;;;;;5.47;100.00;100299.06;5149597;28;20217;-76
2023/02/23 05:17:30;;;;;;;21.00;9.52;;;;;;;5.48;100.00;100304.25;5151155;28;20388;-76
2023/02/23 05:20:00;;;;;;;22.60;10.32;;;;;;;5.39;100.00;100308.75;5147613;28;20027;-75
2023/02/23 05:22:30;;;;;;;27.02;10.40;;;;;;;5.32;100.00;100304.53;5146408;28;20023;-74
2023/02/23 05:25:01;;;;;;;21.63;9.93;;;;;;;5.26;100.00;100304.66;5137676;28;20022;-74
2023/02/23 05:27:31;;;;;;;17.83;9.23;;;;;;;5.32;100.00;100311.47;5156212;28;20033;-76
2023/02/23 05:30:02;;;;;;;22.27;10.35;;;;;;;5.35;100.00;100306.22;5133369;28;20471;-75
2023/02/23 05:32:33;;;;;;;19.38;9.05;;;;;;;5.56;100.00;100309.28;5143021;28;20066;-76
2023/02/23 05:35:04;;;;;;;22.90;9.98;;;;;;;5.50;100.00;100309.38;5144079;28;20115;-75
2023/02/23 05:37:34;;;;;;;22.00;9.23;;;;;;;5.43;100.00;100308.63;5147328;28;20050;-74
2023/02/23 05:40:05;;;;;;;21.48;9.20;;;;;;;5.40;100.00;100310.44;5145302;28;20121;-74
2023/02/23 05:42:37;;;;;;;21.70;9.07;;;;;;;5.47;100.00;100306.84;5142823;28;20512;-76
2023/02/23 05:45:07;;;;;;;19.50;9.50;;;;;;;5.70;100.00;100307.22;5148116;28;20248;-75
2023/02/23 05:47:37;;;;;;;20.02;8.80;;;;;;;5.86;100.00;100308.66;5148925;28;20019;-77
2023/02/23 05:50:10;;;;;;;16.25;7.65;;;;;;;5.87;100.00;100307.78;5141910;28;20026;-77
2023/02/23 05:52:41;;;;;;;20.15;8.43;;;;;;;5.63;100.00;100313.44;5145485;28;20078;-76
2023/02/23 05:55:11;;;;;;;17.95;8.98;;;;;;;5.57;100.00;100313.56;5131565;28;20054;-74
2023/02/23 05:57:41;;;;;;;21.25;8.85;;;;;;;5.66;100.00;100316.84;5157404;28;20049;-74
2023/02/23 06:00:13;;;;;;;13.90;7.53;;;;;;;5.75;100.00;100316.63;5147307;28;20511;-74
2023/02/23 06:02:43;;;;;;;16.40;7.95;;;;;;;5.82;100.00;100315.66;5154022;28;20153;-74
2023/02/23 06:05:14;;;;;;;17.73;7.75;;;;;;;5.72;100.00;100314.09;5151165;28;20109;-72
2023/02/23 06:07:45;;;;;;;20.38;8.55;;;;;;;5.46;100.00;100320.69;5131287;28;20026;-74
2023/02/23 06:10:16;;;;;;;21.55;9.55;;;;;;;5.37;100.00;100326.06;5144894;28;20163;-74
2023/02/23 06:12:47;;;;;;;22.05;9.07;;;;;;;5.46;100.00;100321.56;5127889;28;20134;-74
2023/02/23 06:15:17;;;;;;;23.90;10.60;;;;;;;5.40;100.00;100320.81;5148886;28;20034;-76
2023/02/23 06:17:47;;;;;;;26.88;10.48;;;;;;;5.54;100.00;100316.22;5146881;28;20521;-77
2023/02/23 06:20:18;;;;;;;31.73;12.48;;;;;;;5.48;100.00;100327.56;5134864;28;20039;-75
2023/02/23 06:22:48;;;;;;;28.55;11.80;;;;;;;5.56;100.00;100320.47;5140626;28;20042;-74
2023/02/23 06:25:19;;;;;;;32.53;12.98;;;;;;;5.37;100.00;100325.19;5146008;28;20034;-74
2023/02/23 06:27:49;;;;;;;21.10;10.23;;;;;;;4.87;100.00;100333.88;5136672;28;20043;-74
2023/02/23 06:30:20;;;;;;;19.92;8.88;;;;;;;4.65;100.00;100337.66;5137660;28;20026;-74
2023/02/23 06:32:50;;;;;;;17.75;8.10;;;;;;;4.57;100.00;100328.28;5146357;28;20041;-75
2023/02/23 06:35:20;;;;;;;18.58;8.68;;;;;;;4.70;100.00;100335.88;5140735;28;20069;-77
2023/02/23 06:37:51;;;;;;;19.88;9.88;;;;;;;4.80;100.00;100337.41;5142361;28;20026;-76
2023/02/23 06:40:21;;;;;;;16.85;8.75;;;;;;;4.87;100.00;100339.03;5141065;28;20118;-75
2023/02/23 06:42:52;;;;;;;12.05;7.18;;;;;;;4.92;100.00;100346.72;5143949;28;20030;-74
2023/02/23 06:45:23;;;;;;;17.30;7.90;;;;;;;4.99;100.00;100343.16;5149026;28;20031;-75
2023/02/23 06:47:53;;;;;;;20.90;8.88;;;;;;;5.00;100.00;100345.69;5150933;28;20752;-77
2023/02/23 06:50:23;;;;;;;15.30;7.97;;;;;;;5.08;100.00;100345.56;5143222;28;20026;-75
2023/02/23 06:52:55;;;;;;;19.45;9.18;;;;;;;5.11;100.00;100355.91;5152593;28;20039;-76
2023/02/23 06:55:25;;;;;;;16.25;8.70;;;;;;;5.16;100.00;100344.56;5150688;28;20030;-75
2023/02/23 06:57:56;;;;;;;18.42;8.40;;;;;;;5.22;100.00;100341.88;5160678;28;20546;-76
2023/02/23 07:00:26;;;;;;;19.67;9.25;;;;;;;5.37;100.00;100353.69;5156867;28;20365;-74
2023/02/23 07:02:57;;;;;;;29.15;10.55;;;;;;;5.73;100.00;100359.03;5152408;28;20133;-77
2023/02/23 07:05:28;;;;;;;38.97;11.60;;;;;;;5.73;100.00;100361.63;5158684;28;20046;-76
2023/02/23 07:07:58;;;;;;;26.33;10.63;;;;;;;5.97;100.00;100362.03;5156974;28;20422;-76
2023/02/23 07:10:28;;;;;;;18.60;8.68;;;;;;;5.93;100.00;100364.72;5150633;28;20404;-76
2023/02/23 07:12:59;;;;;;;17.17;8.70;;;;;;;5.89;100.00;100368.25;5148452;28;20105;-76
2023/02/23 07:15:29;;;;;;;19.88;9.02;;;;;;;5.84;100.00;100375.25;5152191;28;20037;-74
2023/02/23 07:18:00;;;;;;;17.02;8.75;;;;;;;5.85;100.00;100374.38;5152907;28;20384;-75
2023/02/23 07:20:30;;;;;;;20.58;10.65;;;;;;;5.87;100.00;100375.19;5150730;28;20023;-74
2023/02/23 07:23:01;;;;;;;22.92;10.15;;;;;;;6.04;100.00;100375.69;5153824;28;20069;-74
2023/02/23 07:25:31;;;;;;;24.90;12.10;;;;;;;6.18;100.00;100381.47;5146174;28;20085;-74
2023/02/23 07:28:01;;;;;;;29.73;13.80;;;;;;;6.25;100.00;100377.88;5142580;28;20022;-74
2023/02/23 07:30:31;;;;;;;35.67;14.52;;;;;;;6.19;100.00;100386.63;5147782;28;20420;-75
2023/02/23 07:33:02;;;;;;;35.22;13.90;;;;;;;6.08;100.00;100386.00;5151353;28;20496;-74
2023/02/23 07:35:32;;;;;;;19.00;9.35;;;;;;;6.05;100.00;100390.41;5157224;28;20030;-75
2023/02/23 07:38:04;;;;;;;18.83;9.20;;;;;;;6.17;100.00;100390.13;5157109;28;20034;-75
2023/02/23 07:40:34;;;;;;;16.95;9.23;;;;;;;6.14;100.00;100392.81;5145831;28;20019;-76
2023/02/23 07:43:05;;;;;;;20.50;10.23;;;;;;;6.11;100.00;100383.31;5151666;28;20026;-74
2023/02/23 07:45:35;;;;;;;25.92;11.80;;;;;;;6.35;100.00;100387.16;5146759;28;20117;-75
2023/02/23 07:48:06;;;;;;;22.33;10.55;;;;;;;6.30;100.00;100381.22;5150217;28;20077;-74
2023/02/23 07:50:39;;;;;;;19.92;10.00;;;;;;;6.42;100.00;100379.19;5151628;28;20026;-75
2023/02/23 07:53:10;;;;;;;22.38;10.43;;;;;;;6.45;100.00;100375.69;5152257;28;20056;-74
2023/02/23 07:55:40;;;;;;;24.92;10.68;;;;;;;6.50;100.00;100384.22;5144273;28;20018;-74
2023/02/23 07:58:12;;;;;;;25.42;11.25;;;;;;;6.51;100.00;100392.00;5150920;28;20496;-74
2023/02/23 08:00:42;;;;;;;24.63;10.82;;;;;;;6.58;100.00;100392.72;5153461;28;20468;-76
2023/02/23 08:03:12;;;;;;;23.30;11.52;;;;;;;6.60;100.00;100393.53;5150795;28;20034;-74
2023/02/23 08:05:44;;;;;;;24.95;11.63;;;;;;;6.76;100.00;100393.13;5157259;28;20323;-75
2023/02/23 08:08:14;;;;;;;24.65;11.63;;;;;;;6.98;100.00;100389.16;5155500;28;20377;-76
2023/02/23 08:10:46;;;;;;;27.40;12.30;;;;;;;6.94;100.00;100386.66;5150292;28;20113;-76
2023/02/23 08:13:17;;;;;;;24.63;12.52;;;;;;;7.09;100.00;100392.31;5145241;28;20027;-76
2023/02/23 08:15:47;;;;;;;24.52;12.63;;;;;;;7.03;100.00;100395.09;5135353;28;20133;-75
2023/02/23 08:18:17;;;;;;;27.00;12.77;;;;;;;7.04;100.00;100396.78;5150633;28;20045;-75
2023/02/23 08:20:47;;;;;;;26.88;12.82;;;;;;;7.03;100.00;100397.69;5150750;28;20805;-73
2023/02/23 08:23:18;;;;;;;27.88;12.88;;;;;;;7.01;100.00;100396.00;5143745;28;20118;-75
2023/02/23 08:25:48;;;;;;;26.17;12.80;;;;;;;7.03;100.00;100392.50;5150204;28;20500;-75
2023/02/23 08:28:18;;;;;;;23.85;12.70;;;;;;;7.18;100.00;100396.44;5158776;28;20597;-75
2023/02/23 08:30:49;;;;;;;30.70;14.48;;;;;;;7.45;100.00;100397.47;5146325;28;20040;-75
2023/02/23 08:33:19;;;;;;;29.25;13.43;;;;;;;7.26;100.00;100399.72;5150163;28;20022;-75
2023/02/23 08:35:52;;;;;;;29.50;13.02;;;;;;;7.32;100.00;100401.25;5158410;28;20140;-75
2023/02/23 08:38:22;;;;;;;28.35;13.65;;;;;;;7.31;100.00;100399.56;5151858;28;20061;-76
2023/02/23 08:40:53;;;;;;;28.33;14.35;;;;;;;7.50;100.00;100395.59;5150558;28;20069;-77
2023/02/23 08:43:24;;;;;;;30.50;15.00;;;;;;;7.58;100.00;100404.06;5148205;28;20031;-74
2023/02/23 08:45:54;;;;;;;29.02;14.25;;;;;;;7.56;100.00;100400.63;5151614;28;20348;-74
2023/02/23 08:48:25;;;;;;;31.63;14.38;;;;;;;7.68;100.00;100399.47;5151054;28;20007;-74
2023/02/23 08:50:56;;;;;;;28.85;15.32;;;;;;;7.78;100.00;100390.50;5143452;28;20311;-75
2023/02/23 08:53:28;;;;;;;34.05;15.32;;;;;;;7.95;100.00;100402.16;5127763;28;20027;-74
2023/02/23 08:56:00;;;;;;;35.15;16.08;;;;;;;7.95;100.00;100399.56;5149955;28;20079;-75
2023/02/23 08:58:32;;;;;;;33.67;16.20;;;;;;;8.05;100.00;100405.38;5159503;28;20481;-74
2023/02/23 09:01:03;;;;;;;34.03;16.98;;;;;;;8.24;100.00;100402.22;5131116;28;20029;-75
2023/02/23 09:03:35;;;;;;;34.90;16.55;;;;;;;8.14;100.00;100405.97;5122072;28;20026;-74
2023/02/23 09:06:09;;;;;;;31.73;16.25;;;;;;;8.22;100.00;100403.19;5148691;28;20420;-74
2023/02/23 09:08:40;;;;;;;32.53;17.33;;;;;;;8.20;100.00;100404.97;5147894;28;20485;-76
2023/02/23 09:11:11;;;;;;;32.75;17.15;;;;;;;8.22;100.00;100404.00;5144538;28;20156;-74
2023/02/23 09:13:41;;;;;;;34.28;17.02;;;;;;;8.23;100.00;100405.72;5139445;28;20033;-74
2023/02/23 09:16:12;;;;;;;31.77;16.38;;;;;;;8.32;100.00;100410.66;5152636;28;20543;-76
2023/02/23 09:18:42;;;;;;;37.10;18.67;;;;;;;8.59;100.00;100417.66;5144311;28;20154;-74
2023/02/23 09:21:20;;;;;;;35.65;17.83;;;;;;;8.58;100.00;100420.31;5147582;28;20419;-74
2023/02/23 09:23:54;;;;;;;36.97;18.20;;;;;;;8.67;100.00;100414.81;5149768;28;20383;-75
2023/02/23 09:26:28;;;;;;;35.13;17.70;;;;;;;8.61;100.00;100420.22;5150870;28;20030;-76
2023/02/23 09:29:00;;;;;;;39.80;18.90;;;;;;;8.59;100.00;100419.41;5141493;28;20026;-76
2023/02/23 09:31:30;;;;;;;37.67;19.65;;;;;;;8.63;100.00;100418.41;5126990;28;20030;-76
2023/02/23 09:34:00;;;;;;;38.95;19.55;;;;;;;8.61;100.00;100418.47;5138595;28;20033;-74
2023/02/23 09:36:31;;;;;;;40.17;19.38;;;;;;;8.72;100.00;100416.38;5146492;28;20022;-74
2023/02/23 09:39:01;;;;;;;40.67;20.63;;;;;;;8.67;100.00;100423.50;5146597;28;20051;-74
2023/02/23 09:41:44;;;;;;;45.42;22.73;;;;;;;8.65;100.00;100425.31;5149085;28;20058;-74
2023/02/23 09:44:27;;;;;;;45.95;23.88;;;;;;;8.66;100.00;100427.00;5144014;28;20476;-75
2023/02/23 09:47:06;;;;;;;45.88;23.95;;;;;;;8.70;100.00;100428.59;5152455;28;20101;-75
2023/02/23 09:49:40;;;;;;;49.83;24.88;;;;;;;8.83;100.00;100422.13;5138061;28;20195;-77
2023/02/23 09:52:22;;;;;;;48.17;24.25;;;;;;;8.69;100.00;100431.28;5149309;28;20200;-75
2023/02/23 09:54:53;;;;;;;49.47;25.27;;;;;;;8.75;100.00;100431.06;5144280;28;20026;-74
2023/02/23 09:57:38;;;;;;;53.08;26.55;;;;;;;8.76;100.00;100432.78;5144507;28;21005;-75
2023/02/23 10:00:18;;;;;;;49.65;24.27;;;;;;;8.88;100.00;100435.84;5152665;28;20034;-74
2023/02/23 10:03:14;;;;;;;48.83;25.13;;;;;;;8.96;100.00;100431.28;5143204;28;20027;-75
2023/02/23 10:05:47;;;;;;;;;;;;;;;8.96;100.00;100430.41;5141459;28;20026;-74
2023/02/23 10:08:54;;;;;;;48.42;24.58;;;;;;;8.99;100.00;100435.53;5147812;28;20007;-76
2023/02/23 10:12:03;;;;;;;51.28;25.48;;;;;;;9.16;100.00;100428.88;5147664;28;20508;-75
2023/02/23 10:14:57;;;;;;;56.30;27.33;;;;;;;9.06;100.00;100434.44;5137951;28;20343;-75
2023/02/23 10:18:02;;;;;;;56.60;27.25;;;;;;;9.17;100.00;100435.81;5144065;28;20416;-74
2023/02/23 10:20:44;;;;;;;58.97;28.23;;;;;;;9.27;100.00;100429.38;5133427;28;20026;-74
2023/02/23 10:23:20;;;;;;;63.83;28.67;;;;;;;9.50;100.00;100429.50;5149589;28;20029;-74
2023/02/23 10:25:53;;;;;;;59.13;28.85;;;;;;;9.41;100.00;100435.00;5150723;28;20040;-74
2023/02/23 10:28:24;;;;;;;62.65;29.73;;;;;;;9.44;100.00;100440.09;5144794;28;20529;-75
2023/02/23 10:30:55;;;;;;;66.10;29.27;;;;;;;9.41;100.00;100435.00;5135840;28;20030;-73
2023/02/23 10:33:33;;;;;;;56.90;29.38;;;;;;;9.36;100.00;100429.97;5162035;28;20105;-76
2023/02/23 10:36:24;;;;;;;77.97;33.60;;;;;;;9.34;100.00;100439.56;5146890;28;20026;-77
2023/02/23 10:38:55;;;;;;;57.00;28.50;;;;;;;9.27;100.00;100438.06;5135498;28;20113;-74
2023/02/23 10:41:25;;;;;;;52.53;27.10;;;;;;;9.31;100.00;100442.25;5144656;28;20042;-73
2023/02/23 10:43:56;;;;;;;54.83;27.38;;;;;;;9.36;100.00;100442.13;5143029;28;20026;-74
2023/02/23 10:46:39;;;;;;;53.30;27.08;;;;;;;9.38;100.00;100443.78;5154728;28;20026;-76
2023/02/23 10:49:17;;;;;;;47.63;25.52;;;;;;;9.37;100.00;100443.81;5150976;28;20399;-74
2023/02/23 10:51:51;;;;;;;55.00;28.50;;;;;;;9.55;100.00;100438.88;5153091;28;20042;-75
2023/02/23 10:54:38;;;;;;;54.70;28.33;;;;;;;9.36;100.00;100439.53;5136348;28;20117;-74
2023/02/23 10:57:12;;;;;;;54.67;27.50;;;;;;;9.44;100.00;100443.56;5149332;28;20026;-75
2023/02/23 11:00:19;;;;;;;61.53;32.15;;;;;;;9.51;100.00;100446.84;5154137;28;20102;-75
2023/02/23 11:02:49;;;;;;;55.63;28.45;;;;;;;9.39;100.00;100442.00;5157275;28;20365;-75
2023/02/23 11:05:28;;;;;;;56.03;28.83;;;;;;;9.53;100.00;100434.59;5155575;28;20864;-76
2023/02/23 11:08:38;;;;;;;54.63;28.20;;;;;;;9.48;100.00;100442.56;5151112;28;20396;-74
2023/02/23 11:11:14;;;;;;;51.83;26.60;;;;;;;9.63;100.00;100431.63;5129585;28;20046;-75
2023/02/23 11:13:47;;;;;;;52.47;27.42;;;;;;;9.63;100.00;100431.63;5139930;28;20428;-75
2023/02/23 11:16:24;;;;;;;48.35;27.77;;;;;;;9.85;100.00;100427.34;5153985;28;20491;-76
2023/02/23 11:19:00;;;;;;;58.75;28.90;;;;;;;9.75;100.00;100425.13;5146986;28;20023;-76
2023/02/23 11:21:33;;;;;;;53.42;28.23;;;;;;;9.81;100.00;100423.16;5130020;28;20054;-77
2023/02/23 11:24:39;;;;;;;48.60;26.50;;;;;;;9.71;100.00;100424.41;5132316;28;20117;-76
2023/02/23 11:27:23;;;;;;;49.58;27.55;;;;;;;9.64;100.00;100424.66;5128501;28;20031;-73
2023/02/23 11:29:56;;;;;;;52.63;27.73;;;;;;;9.75;100.00;100426.00;5152738;28;20480;-75
2023/02/23 11:32:31;;;;;;;49.85;25.50;;;;;;;9.71;100.00;100426.13;5153539;28;20034;-75
2023/02/23 11:35:14;;;;;;;52.25;25.05;;;;;;;9.53;100.00;100419.81;5151001;28;20022;-75
2023/02/23 11:37:44;;;;;;;57.40;25.75;;;;;;;9.55;100.00;100423.22;5150531;28;20483;-75
2023/02/23 11:40:21;;;;;;;49.17;25.05;;;;;;;9.65;100.00;100419.38;5127523;28;20081;-75
2023/02/23 11:42:55;;;;;;;46.90;24.65;;;;;;;9.55;100.00;100409.31;5146158;28;20488;-74
2023/02/23 11:45:32;;;;;;;48.42;24.67;;;;;;;9.65;100.00;100414.16;5151326;28;20026;-75
2023/02/23 11:48:03;;;;;;;47.10;24.33;;;;;;;9.61;100.00;100404.72;5152477;28;20018;-75
2023/02/23 11:50:35;;;;;;;52.00;26.63;;;;;;;9.65;100.00;100402.88;5142866;28;20560;-76
2023/02/23 11:53:14;;;;;;;54.92;25.73;;;;;;;9.51;100.00;100400.72;5152647;28;20088;-75
2023/02/23 11:55:51;;;;;;;52.38;24.75;;;;;;;9.62;100.00;100397.78;5127225;28;20026;-77
2023/02/23 11:58:38;;;;;;;48.05;24.95;;;;;;;9.59;100.00;100409.16;5152624;28;20026;-74
2023/02/23 12:01:13;;;;;;;51.28;25.40;;;;;;;9.61;100.00;100406.47;5128747;28;20080;-75
2023/02/23 12:03:47;;;;;;;49.67;25.02;;;;;;;9.70;100.00;100400.94;5160499;28;20057;-75
2023/02/23 12:06:39;;;;;;;45.38;23.58;;;;;;;9.60;100.00;100399.56;5148515;28;20030;-75
2023/02/23 12:09:28;;;;;;;49.15;23.67;;;;;;;9.66;100.00;100400.19;5142546;28;20061;-75
2023/02/23 12:12:06;;;;;;;46.80;23.27;;;;;;;9.72;100.00;100401.75;5144833;28;20038;-75
2023/02/23 12:14:42;;;;;;;48.05;24.55;;;;;;;9.72;100.00;100399.13;5144642;28;20058;-75
2023/02/23 12:17:22;;;;;;;52.30;25.27;;;;;;;9.71;100.00;100392.22;5141024;28;20031;-74
2023/02/23 12:20:01;;;;;;;51.22;25.20;;;;;;;9.66;100.00;100394.16;5143125;28;20113;-75
2023/02/23 12:22:37;;;;;;;46.40;23.08;;;;;;;9.78;100.00;100399.78;5147648;28;20519;-75
2023/02/23 12:25:15;;;;;;;;;;;;;;;9.84;100.00;100393.50;5149518;28;20045;-76
2023/02/23 12:27:54;;;;;;;46.58;22.65;;;;;;;9.94;100.00;100384.41;5156091;28;19983;-76
2023/02/23 12:30:53;;;;;;;42.65;22.55;;;;;;;9.82;100.00;100390.09;5136613;28;20030;-74
2023/02/23 12:33:39;;;;;;;50.90;24.95;;;;;;;9.95;100.00;100384.38;5156490;28;20042;-74
2023/02/23 12:36:25;;;;;;;46.13;23.48;;;;;;;9.96;100.00;100388.69;5129105;28;20026;-77
2023/02/23 12:38:59;;;;;;;;;;;;;;;9.87;100.00;100389.03;5139868;28;20038;-75
2023/02/23 12:41:42;;;;;;;57.65;27.95;;;;;;;9.85;100.00;100385.59;5128567;28;19983;-76
2023/02/23 12:44:35;;;;;;;62.05;29.77;;;;;;;9.95;100.00;100379.16;5140162;28;20133;-76
2023/02/23 12:47:18;;;;;;;59.03;28.88;;;;;;;9.99;100.00;100375.50;5132107;28;20015;-75
2023/02/23 12:49:56;;;;;;;37.17;17.02;;;;;;;9.88;100.00;100382.91;5139986;28;20038;-76
2023/02/23 12:52:32;;;;;;;48.95;22.35;;;;;;;9.89;100.00;100370.69;5146102;28;20386;-74
2023/02/23 12:55:08;;;;;;;47.22;23.77;;;;;;;9.91;100.00;100369.75;5132673;28;20201;-75
2023/02/23 12:58:01;;;;;;;48.45;22.98;;;;;;;10.08;100.00;100371.75;5134489;28;20026;-76
2023/02/23 13:00:48;;;;;;;40.67;21.08;;;;;;;10.04;100.00;100375.38;5193508;23;20129;-74
2023/02/23 13:03:43;;;;;;;40.58;20.13;;;;;;;9.95;100.00;100371.31;5159462;28;20037;-74
2023/02/23 13:06:38;;;;;;;39.03;19.13;;;;;;;9.95;100.00;100375.69;5161304;28;20539;-73
2023/02/23 13:09:29;;;;;;;31.75;17.13;;;;;;;9.94;100.00;100379.19;5155580;28;20057;-73